sensor_id;sensor_type;location;lat;lon;timestamp;temperature;humidity
60717;DHT22;46566;52.700;6.192;2023-12-04T00:01:25;0.60;99.90
60717;DHT22;46566;52.700;6.192;2023-12-04T00:03:52;0.50;99.90
60717;DHT22;46566;52.700;6.192;2023-12-04T00:06:18;0.60;99.90
60717;DHT22;46566;52.700;6.192;2023-12-04T00:08:44;0.50;99.90
60717;DHT22;46566;52.700;6.192;2023-12-04T00:11:10;0.60;99.90
60717;DHT22;46566;52.700;6.192;2023-12-04T00:13:36;0.60;99.90
60717;DHT22;46566;52.700;6.192;2023-12-04T00:16:03;0.60;99.90
60717;DHT22;46566;52.700;6.192;2023-12-04T00:18:28;0.50;99.90
60717;DHT22;46566;52.700;6.192;2023-12-04T00:20:54;0.60;99.90
60717;DHT22;46566;52.700;6.192;2023-12-04T00:23:20;0.60;99.90
60717;DHT22;46566;52.700;6.192;2023-12-04T00:25:46;0.60;99.90
60717;DHT22;46566;52.700;6.192;2023-12-04T00:28:12;0.60;99.90
60717;DHT22;46566;52.700;6.192;2023-12-04T00:30:37;0.60;99.90
60717;DHT22;46566;52.700;6.192;2023-12-04T00:33:03;0.60;99.90
60717;DHT22;46566;52.700;6.192;2023-12-04T00:35:29;0.60;99.90
60717;DHT22;46566;52.700;6.192;2023-12-04T00:37:55;0.60;99.90
60717;DHT22;46566;52.700;6.192;2023-12-04T00:40:20;0.60;99.90
60717;DHT22;46566;52.700;6.192;2023-12-04T00:42:46;0.60;99.90
60717;DHT22;46566;52.700;6.192;2023-12-04T00:45:12;0.60;99.90
60717;DHT22;46566;52.700;6.192;2023-12-04T00:47:38;0.60;99.90
60717;DHT22;46566;52.700;6.192;2023-12-04T00:50:04;0.60;99.90
60717;DHT22;46566;52.700;6.192;2023-12-04T00:52:30;0.70;99.90
60717;DHT22;46566;52.700;6.192;2023-12-04T00:54:56;0.60;99.90
60717;DHT22;46566;52.700;6.192;2023-12-04T00:57:21;0.70;99.90
60717;DHT22;46566;52.700;6.192;2023-12-04T00:59:48;0.70;99.90
60717;DHT22;46566;52.700;6.192;2023-12-04T01:02:14;0.60;99.90
60717;DHT22;46566;52.700;6.192;2023-12-04T01:04:59;0.60;99.90
60717;DHT22;46566;52.700;6.192;2023-12-04T01:07:25;0.70;99.90
60717;DHT22;46566;52.700;6.192;2023-12-04T01:09:51;0.70;99.90
60717;DHT22;46566;52.700;6.192;2023-12-04T01:12:17;0.70;99.90
60717;DHT22;46566;52.700;6.192;2023-12-04T01:14:42;0.70;99.90
60717;DHT22;46566;52.700;6.192;2023-12-04T01:17:08;0.70;99.90
60717;DHT22;46566;52.700;6.192;2023-12-04T01:19:34;0.70;99.90
60717;DHT22;46566;52.700;6.192;2023-12-04T01:22:00;0.70;99.90
60717;DHT22;46566;52.700;6.192;2023-12-04T01:24:26;0.70;99.90
60717;DHT22;46566;52.700;6.192;2023-12-04T01:26:52;0.70;99.90
60717;DHT22;46566;52.700;6.192;2023-12-04T01:29:17;0.70;99.90
60717;DHT22;46566;52.700;6.192;2023-12-04T01:31:43;0.70;99.90
60717;DHT22;46566;52.700;6.192;2023-12-04T01:34:09;0.80;99.90
60717;DHT22;46566;52.700;6.192;2023-12-04T01:36:35;0.70;99.90
60717;DHT22;46566;52.700;6.192;2023-12-04T01:39:01;0.80;99.90
60717;DHT22;46566;52.700;6.192;2023-12-04T01:41:26;0.80;99.90
60717;DHT22;46566;52.700;6.192;2023-12-04T01:43:52;0.80;99.90
60717;DHT22;46566;52.700;6.192;2023-12-04T01:46:19;0.80;99.90
60717;DHT22;46566;52.700;6.192;2023-12-04T01:48:45;0.80;99.90
60717;DHT22;46566;52.700;6.192;2023-12-04T01:51:12;0.80;99.90
60717;DHT22;46566;52.700;6.192;2023-12-04T01:53:40;0.80;99.90
60717;DHT22;46566;52.700;6.192;2023-12-04T01:56:07;0.80;99.90
60717;DHT22;46566;52.700;6.192;2023-12-04T01:58:34;0.80;99.90
60717;DHT22;46566;52.700;6.192;2023-12-04T02:01:00;0.70;99.90
60717;DHT22;46566;52.700;6.192;2023-12-04T02:03:26;0.80;99.90
60717;DHT22;46566;52.700;6.192;2023-12-04T02:05:52;0.80;99.90
60717;DHT22;46566;52.700;6.192;2023-12-04T02:08:18;0.80;99.90
60717;DHT22;46566;52.700;6.192;2023-12-04T02:10:44;0.80;99.90
60717;DHT22;46566;52.700;6.192;2023-12-04T02:13:10;0.80;99.90
60717;DHT22;46566;52.700;6.192;2023-12-04T02:15:36;0.80;99.90
60717;DHT22;46566;52.700;6.192;2023-12-04T02:18:03;0.80;99.90
60717;DHT22;46566;52.700;6.192;2023-12-04T02:20:35;0.80;99.90
60717;DHT22;46566;52.700;6.192;2023-12-04T02:23:02;0.80;99.90
60717;DHT22;46566;52.700;6.192;2023-12-04T02:25:29;0.80;99.90
60717;DHT22;46566;52.700;6.192;2023-12-04T02:27:56;0.80;99.90
60717;DHT22;46566;52.700;6.192;2023-12-04T02:30:24;0.80;99.90
60717;DHT22;46566;52.700;6.192;2023-12-04T02:32:51;0.80;99.90
60717;DHT22;46566;52.700;6.192;2023-12-04T02:35:23;0.80;99.90
60717;DHT22;46566;52.700;6.192;2023-12-04T02:37:51;0.80;99.90
60717;DHT22;46566;52.700;6.192;2023-12-04T02:40:17;0.90;99.90
60717;DHT22;46566;52.700;6.192;2023-12-04T02:42:44;0.80;99.90
60717;DHT22;46566;52.700;6.192;2023-12-04T02:45:10;0.90;99.90
60717;DHT22;46566;52.700;6.192;2023-12-04T02:47:36;0.80;99.90
60717;DHT22;46566;52.700;6.192;2023-12-04T02:50:02;0.80;99.90
60717;DHT22;46566;52.700;6.192;2023-12-04T02:52:28;0.90;99.90
60717;DHT22;46566;52.700;6.192;2023-12-04T02:54:54;0.90;99.90
60717;DHT22;46566;52.700;6.192;2023-12-04T02:57:19;0.90;99.90
60717;DHT22;46566;52.700;6.192;2023-12-04T02:59:45;0.80;99.90
60717;DHT22;46566;52.700;6.192;2023-12-04T03:02:11;0.90;99.90
60717;DHT22;46566;52.700;6.192;2023-12-04T03:04:37;0.90;99.90
60717;DHT22;46566;52.700;6.192;2023-12-04T03:07:03;0.90;99.90
60717;DHT22;46566;52.700;6.192;2023-12-04T03:09:31;0.90;99.90
60717;DHT22;46566;52.700;6.192;2023-12-04T03:11:57;0.90;99.90
60717;DHT22;46566;52.700;6.192;2023-12-04T03:14:22;0.90;99.90
60717;DHT22;46566;52.700;6.192;2023-12-04T03:16:49;0.90;99.90
60717;DHT22;46566;52.700;6.192;2023-12-04T03:19:15;0.90;99.90
60717;DHT22;46566;52.700;6.192;2023-12-04T03:21:41;0.90;99.90
60717;DHT22;46566;52.700;6.192;2023-12-04T03:24:06;0.90;99.90
60717;DHT22;46566;52.700;6.192;2023-12-04T03:26:32;0.90;99.90
60717;DHT22;46566;52.700;6.192;2023-12-04T03:28:58;0.90;99.90
60717;DHT22;46566;52.700;6.192;2023-12-04T03:31:24;0.90;99.90
60717;DHT22;46566;52.700;6.192;2023-12-04T03:33:50;0.90;99.90
60717;DHT22;46566;52.700;6.192;2023-12-04T03:36:16;0.90;99.90
60717;DHT22;46566;52.700;6.192;2023-12-04T03:38:42;0.90;99.90
60717;DHT22;46566;52.700;6.192;2023-12-04T03:41:15;0.90;99.90
60717;DHT22;46566;52.700;6.192;2023-12-04T03:43:41;0.90;99.90
60717;DHT22;46566;52.700;6.192;2023-12-04T03:46:07;0.90;99.90
60717;DHT22;46566;52.700;6.192;2023-12-04T03:48:33;0.90;99.90
60717;DHT22;46566;52.700;6.192;2023-12-04T03:50:58;0.90;99.90
60717;DHT22;46566;52.700;6.192;2023-12-04T03:53:26;0.90;99.90
60717;DHT22;46566;52.700;6.192;2023-12-04T03:55:52;0.90;99.90
60717;DHT22;46566;52.700;6.192;2023-12-04T03:58:18;0.90;99.90
60717;DHT22;46566;52.700;6.192;2023-12-04T04:00:43;0.90;99.90
60717;DHT22;46566;52.700;6.192;2023-12-04T04:03:10;0.90;99.90
60717;DHT22;46566;52.700;6.192;2023-12-04T04:05:36;0.90;99.90
60717;DHT22;46566;52.700;6.192;2023-12-04T04:08:02;0.90;99.90
60717;DHT22;46566;52.700;6.192;2023-12-04T04:10:28;0.90;99.90
60717;DHT22;46566;52.700;6.192;2023-12-04T04:12:54;0.90;99.90
60717;DHT22;46566;52.700;6.192;2023-12-04T04:15:20;1.00;99.90
60717;DHT22;46566;52.700;6.192;2023-12-04T04:17:45;0.90;99.90
60717;DHT22;46566;52.700;6.192;2023-12-04T04:20:11;0.90;99.90
60717;DHT22;46566;52.700;6.192;2023-12-04T04:22:38;0.90;99.90
60717;DHT22;46566;52.700;6.192;2023-12-04T04:25:07;1.00;99.90
60717;DHT22;46566;52.700;6.192;2023-12-04T04:27:33;0.90;99.90
60717;DHT22;46566;52.700;6.192;2023-12-04T04:29:59;1.00;99.90
60717;DHT22;46566;52.700;6.192;2023-12-04T04:32:25;0.90;99.90
60717;DHT22;46566;52.700;6.192;2023-12-04T04:34:51;1.00;99.90
60717;DHT22;46566;52.700;6.192;2023-12-04T04:37:17;1.00;99.90
60717;DHT22;46566;52.700;6.192;2023-12-04T04:39:42;0.90;99.90
60717;DHT22;46566;52.700;6.192;2023-12-04T04:42:09;0.90;99.90
60717;DHT22;46566;52.700;6.192;2023-12-04T04:44:34;0.90;99.90
60717;DHT22;46566;52.700;6.192;2023-12-04T04:47:00;1.00;99.90
60717;DHT22;46566;52.700;6.192;2023-12-04T04:49:26;1.00;99.90
60717;DHT22;46566;52.700;6.192;2023-12-04T04:51:52;1.00;99.90
60717;DHT22;46566;52.700;6.192;2023-12-04T04:54:18;1.00;99.90
60717;DHT22;46566;52.700;6.192;2023-12-04T04:56:43;1.00;99.90
60717;DHT22;46566;52.700;6.192;2023-12-04T04:59:09;1.00;99.90
60717;DHT22;46566;52.700;6.192;2023-12-04T05:01:35;1.00;99.90
60717;DHT22;46566;52.700;6.192;2023-12-04T05:04:02;1.00;99.90
60717;DHT22;46566;52.700;6.192;2023-12-04T05:06:28;1.00;99.90
60717;DHT22;46566;52.700;6.192;2023-12-04T05:08:54;1.00;99.90
60717;DHT22;46566;52.700;6.192;2023-12-04T05:11:20;1.00;99.90
60717;DHT22;46566;52.700;6.192;2023-12-04T05:13:45;1.00;99.90
60717;DHT22;46566;52.700;6.192;2023-12-04T05:16:12;1.00;99.90
60717;DHT22;46566;52.700;6.192;2023-12-04T05:18:39;1.00;99.90
60717;DHT22;46566;52.700;6.192;2023-12-04T05:21:11;1.00;99.90
60717;DHT22;46566;52.700;6.192;2023-12-04T05:23:37;1.00;99.90
60717;DHT22;46566;52.700;6.192;2023-12-04T05:26:04;1.00;99.90
60717;DHT22;46566;52.700;6.192;2023-12-04T05:28:30;1.00;99.90
60717;DHT22;46566;52.700;6.192;2023-12-04T05:30:56;1.00;99.90
60717;DHT22;46566;52.700;6.192;2023-12-04T05:33:22;1.00;99.90
60717;DHT22;46566;52.700;6.192;2023-12-04T05:35:48;1.00;99.90
60717;DHT22;46566;52.700;6.192;2023-12-04T05:38:16;1.00;99.90
60717;DHT22;46566;52.700;6.192;2023-12-04T05:40:42;1.00;99.90
60717;DHT22;46566;52.700;6.192;2023-12-04T05:43:08;1.00;99.90
60717;DHT22;46566;52.700;6.192;2023-12-04T05:45:34;1.00;99.90
60717;DHT22;46566;52.700;6.192;2023-12-04T05:48:00;1.00;99.90
60717;DHT22;46566;52.700;6.192;2023-12-04T05:50:25;1.00;99.90
60717;DHT22;46566;52.700;6.192;2023-12-04T05:52:51;1.00;99.90
60717;DHT22;46566;52.700;6.192;2023-12-04T05:55:17;1.00;99.90
60717;DHT22;46566;52.700;6.192;2023-12-04T05:57:44;1.00;99.90
60717;DHT22;46566;52.700;6.192;2023-12-04T06:00:10;1.00;99.90
60717;DHT22;46566;52.700;6.192;2023-12-04T06:02:41;1.00;99.90
60717;DHT22;46566;52.700;6.192;2023-12-04T06:05:08;1.00;99.90
60717;DHT22;46566;52.700;6.192;2023-12-04T06:07:34;0.90;99.90
60717;DHT22;46566;52.700;6.192;2023-12-04T06:10:00;1.00;99.90
60717;DHT22;46566;52.700;6.192;2023-12-04T06:12:26;0.90;99.90
60717;DHT22;46566;52.700;6.192;2023-12-04T06:14:52;1.00;99.90
60717;DHT22;46566;52.700;6.192;2023-12-04T06:17:18;0.90;99.90
60717;DHT22;46566;52.700;6.192;2023-12-04T06:19:46;1.00;99.90
60717;DHT22;46566;52.700;6.192;2023-12-04T06:22:12;1.00;99.90
60717;DHT22;46566;52.700;6.192;2023-12-04T06:24:38;1.00;99.90
60717;DHT22;46566;52.700;6.192;2023-12-04T06:27:04;1.00;99.90
60717;DHT22;46566;52.700;6.192;2023-12-04T06:29:32;1.00;99.90
60717;DHT22;46566;52.700;6.192;2023-12-04T06:31:58;1.00;99.90
60717;DHT22;46566;52.700;6.192;2023-12-04T06:34:24;1.00;99.90
60717;DHT22;46566;52.700;6.192;2023-12-04T06:36:50;1.00;99.90
60717;DHT22;46566;52.700;6.192;2023-12-04T06:39:16;1.00;99.90
60717;DHT22;46566;52.700;6.192;2023-12-04T06:41:43;1.00;99.90
60717;DHT22;46566;52.700;6.192;2023-12-04T06:44:10;1.00;99.90
60717;DHT22;46566;52.700;6.192;2023-12-04T06:46:37;1.00;99.90
60717;DHT22;46566;52.700;6.192;2023-12-04T06:49:05;1.00;99.90
60717;DHT22;46566;52.700;6.192;2023-12-04T06:51:34;1.00;99.90
60717;DHT22;46566;52.700;6.192;2023-12-04T06:54:00;1.00;99.90
60717;DHT22;46566;52.700;6.192;2023-12-04T06:56:25;1.00;99.90
60717;DHT22;46566;52.700;6.192;2023-12-04T06:58:51;1.00;99.90
60717;DHT22;46566;52.700;6.192;2023-12-04T07:01:17;1.00;99.90
60717;DHT22;46566;52.700;6.192;2023-12-04T07:03:43;1.00;99.90
60717;DHT22;46566;52.700;6.192;2023-12-04T07:06:09;1.00;99.90
60717;DHT22;46566;52.700;6.192;2023-12-04T07:08:35;1.00;99.90
60717;DHT22;46566;52.700;6.192;2023-12-04T07:11:00;1.00;99.90
60717;DHT22;46566;52.700;6.192;2023-12-04T07:13:26;1.00;99.90
60717;DHT22;46566;52.700;6.192;2023-12-04T07:15:55;1.10;99.90
60717;DHT22;46566;52.700;6.192;2023-12-04T07:18:21;1.10;99.90
60717;DHT22;46566;52.700;6.192;2023-12-04T07:20:46;1.10;99.90
60717;DHT22;46566;52.700;6.192;2023-12-04T07:23:12;1.10;99.90
60717;DHT22;46566;52.700;6.192;2023-12-04T07:25:38;1.10;99.90
60717;DHT22;46566;52.700;6.192;2023-12-04T07:28:04;1.10;99.90
60717;DHT22;46566;52.700;6.192;2023-12-04T07:30:30;1.10;99.90
60717;DHT22;46566;52.700;6.192;2023-12-04T07:32:55;1.10;99.90
60717;DHT22;46566;52.700;6.192;2023-12-04T07:35:21;1.10;99.90
60717;DHT22;46566;52.700;6.192;2023-12-04T07:37:47;1.10;99.90
60717;DHT22;46566;52.700;6.192;2023-12-04T07:40:14;1.20;99.90
60717;DHT22;46566;52.700;6.192;2023-12-04T07:42:40;1.20;99.90
60717;DHT22;46566;52.700;6.192;2023-12-04T07:45:06;1.20;99.90
60717;DHT22;46566;52.700;6.192;2023-12-04T07:47:32;1.20;99.90
60717;DHT22;46566;52.700;6.192;2023-12-04T07:49:58;1.20;99.90
60717;DHT22;46566;52.700;6.192;2023-12-04T07:52:25;1.20;99.90
60717;DHT22;46566;52.700;6.192;2023-12-04T07:54:51;1.20;99.90
60717;DHT22;46566;52.700;6.192;2023-12-04T07:57:17;1.20;99.90
60717;DHT22;46566;52.700;6.192;2023-12-04T07:59:43;1.20;99.90
60717;DHT22;46566;52.700;6.192;2023-12-04T08:02:09;1.20;99.90
60717;DHT22;46566;52.700;6.192;2023-12-04T08:04:34;1.20;99.90
60717;DHT22;46566;52.700;6.192;2023-12-04T08:07:00;1.20;99.90
60717;DHT22;46566;52.700;6.192;2023-12-04T08:09:26;1.20;99.90
60717;DHT22;46566;52.700;6.192;2023-12-04T08:11:52;1.20;99.90
60717;DHT22;46566;52.700;6.192;2023-12-04T08:14:18;1.30;99.90
60717;DHT22;46566;52.700;6.192;2023-12-04T08:16:48;1.20;99.90
60717;DHT22;46566;52.700;6.192;2023-12-04T08:19:14;1.30;99.90
60717;DHT22;46566;52.700;6.192;2023-12-04T08:21:40;1.30;99.90
60717;DHT22;46566;52.700;6.192;2023-12-04T08:24:06;1.30;99.90
60717;DHT22;46566;52.700;6.192;2023-12-04T08:26:32;1.30;99.90
60717;DHT22;46566;52.700;6.192;2023-12-04T08:28:58;1.30;99.90
60717;DHT22;46566;52.700;6.192;2023-12-04T08:31:24;1.30;99.90
60717;DHT22;46566;52.700;6.192;2023-12-04T08:33:49;1.30;99.90
60717;DHT22;46566;52.700;6.192;2023-12-04T08:36:15;1.30;99.90
60717;DHT22;46566;52.700;6.192;2023-12-04T08:38:41;1.30;99.90
60717;DHT22;46566;52.700;6.192;2023-12-04T08:41:07;1.40;99.90
60717;DHT22;46566;52.700;6.192;2023-12-04T08:43:33;1.40;99.90
60717;DHT22;46566;52.700;6.192;2023-12-04T08:45:59;1.40;99.90
60717;DHT22;46566;52.700;6.192;2023-12-04T08:48:26;1.40;99.90
60717;DHT22;46566;52.700;6.192;2023-12-04T08:50:52;1.40;99.90
60717;DHT22;46566;52.700;6.192;2023-12-04T08:53:17;1.40;99.90
60717;DHT22;46566;52.700;6.192;2023-12-04T08:55:43;1.40;99.90
60717;DHT22;46566;52.700;6.192;2023-12-04T08:58:10;1.50;99.90
60717;DHT22;46566;52.700;6.192;2023-12-04T09:00:36;1.50;99.90
60717;DHT22;46566;52.700;6.192;2023-12-04T09:03:03;1.50;99.90
60717;DHT22;46566;52.700;6.192;2023-12-04T09:05:29;1.50;99.90
60717;DHT22;46566;52.700;6.192;2023-12-04T09:07:55;1.50;99.90
60717;DHT22;46566;52.700;6.192;2023-12-04T09:10:20;1.60;99.90
60717;DHT22;46566;52.700;6.192;2023-12-04T09:12:46;1.60;99.90
60717;DHT22;46566;52.700;6.192;2023-12-04T09:15:12;1.60;99.90
60717;DHT22;46566;52.700;6.192;2023-12-04T09:17:38;1.60;99.90
60717;DHT22;46566;52.700;6.192;2023-12-04T09:20:04;1.60;99.90
60717;DHT22;46566;52.700;6.192;2023-12-04T09:22:31;1.70;99.90
60717;DHT22;46566;52.700;6.192;2023-12-04T09:24:57;1.70;99.90
60717;DHT22;46566;52.700;6.192;2023-12-04T09:27:23;1.80;99.90
60717;DHT22;46566;52.700;6.192;2023-12-04T09:29:48;1.80;99.90
60717;DHT22;46566;52.700;6.192;2023-12-04T09:32:14;1.80;99.90
60717;DHT22;46566;52.700;6.192;2023-12-04T09:34:40;1.90;99.90
60717;DHT22;46566;52.700;6.192;2023-12-04T09:37:06;1.90;99.90
60717;DHT22;46566;52.700;6.192;2023-12-04T09:39:33;1.90;99.90
60717;DHT22;46566;52.700;6.192;2023-12-04T09:41:59;1.90;99.90
60717;DHT22;46566;52.700;6.192;2023-12-04T09:44:28;1.90;99.90
60717;DHT22;46566;52.700;6.192;2023-12-04T09:46:54;2.00;99.90
60717;DHT22;46566;52.700;6.192;2023-12-04T09:49:21;2.00;99.90
60717;DHT22;46566;52.700;6.192;2023-12-04T09:51:48;2.00;99.90
60717;DHT22;46566;52.700;6.192;2023-12-04T09:54:17;2.00;99.90
60717;DHT22;46566;52.700;6.192;2023-12-04T09:56:43;2.00;99.90
60717;DHT22;46566;52.700;6.192;2023-12-04T09:59:10;2.10;99.90
60717;DHT22;46566;52.700;6.192;2023-12-04T10:01:59;2.10;99.90
60717;DHT22;46566;52.700;6.192;2023-12-04T10:04:25;2.20;99.90
60717;DHT22;46566;52.700;6.192;2023-12-04T10:06:51;2.20;99.90
60717;DHT22;46566;52.700;6.192;2023-12-04T10:09:46;2.20;99.90
60717;DHT22;46566;52.700;6.192;2023-12-04T10:12:12;2.20;99.90
60717;DHT22;46566;52.700;6.192;2023-12-04T10:14:38;2.20;99.90
60717;DHT22;46566;52.700;6.192;2023-12-04T10:17:35;2.20;99.90
60717;DHT22;46566;52.700;6.192;2023-12-04T10:20:07;2.20;99.90
60717;DHT22;46566;52.700;6.192;2023-12-04T10:22:40;2.20;99.90
60717;DHT22;46566;52.700;6.192;2023-12-04T10:25:48;2.20;99.90
60717;DHT22;46566;52.700;6.192;2023-12-04T10:28:18;2.20;99.90
60717;DHT22;46566;52.700;6.192;2023-12-04T10:31:09;2.30;99.90
60717;DHT22;46566;52.700;6.192;2023-12-04T10:33:35;2.30;99.90
60717;DHT22;46566;52.700;6.192;2023-12-04T10:36:01;2.30;99.90
60717;DHT22;46566;52.700;6.192;2023-12-04T10:38:28;2.30;99.90
60717;DHT22;46566;52.700;6.192;2023-12-04T10:41:19;2.30;99.90
60717;DHT22;46566;52.700;6.192;2023-12-04T10:43:48;2.30;99.90
60717;DHT22;46566;52.700;6.192;2023-12-04T10:46:14;2.30;99.90
60717;DHT22;46566;52.700;6.192;2023-12-04T10:49:03;2.30;99.90
60717;DHT22;46566;52.700;6.192;2023-12-04T10:51:30;2.30;99.90
60717;DHT22;46566;52.700;6.192;2023-12-04T10:53:56;2.30;99.90
60717;DHT22;46566;52.700;6.192;2023-12-04T10:59:27;2.30;99.90
60717;DHT22;46566;52.700;6.192;2023-12-04T11:01:54;2.30;99.90
60717;DHT22;46566;52.700;6.192;2023-12-04T11:04:23;2.30;99.90
60717;DHT22;46566;52.700;6.192;2023-12-04T11:07:15;2.30;99.90
60717;DHT22;46566;52.700;6.192;2023-12-04T11:09:42;2.30;99.90
60717;DHT22;46566;52.700;6.192;2023-12-04T11:12:11;2.30;99.90
60717;DHT22;46566;52.700;6.192;2023-12-04T11:15:02;2.30;99.90
60717;DHT22;46566;52.700;6.192;2023-12-04T11:17:33;2.40;99.90
60717;DHT22;46566;52.700;6.192;2023-12-04T11:20:07;2.40;99.90
60717;DHT22;46566;52.700;6.192;2023-12-04T11:22:59;2.40;99.90
60717;DHT22;46566;52.700;6.192;2023-12-04T11:25:28;2.40;99.90
60717;DHT22;46566;52.700;6.192;2023-12-04T11:27:55;2.40;99.90
60717;DHT22;46566;52.700;6.192;2023-12-04T11:30:22;2.40;99.90
60717;DHT22;46566;52.700;6.192;2023-12-04T11:33:13;2.40;99.90
60717;DHT22;46566;52.700;6.192;2023-12-04T11:35:39;2.40;99.90
60717;DHT22;46566;52.700;6.192;2023-12-04T11:38:05;2.40;99.90
60717;DHT22;46566;52.700;6.192;2023-12-04T11:43:25;2.40;99.90
60717;DHT22;46566;52.700;6.192;2023-12-04T11:45:52;2.50;99.90
60717;DHT22;46566;52.700;6.192;2023-12-04T11:48:22;2.50;99.90
60717;DHT22;46566;52.700;6.192;2023-12-04T11:51:01;2.50;99.90
60717;DHT22;46566;52.700;6.192;2023-12-04T11:53:27;2.60;99.90
60717;DHT22;46566;52.700;6.192;2023-12-04T11:55:55;2.60;99.90
60717;DHT22;46566;52.700;6.192;2023-12-04T11:58:24;2.60;99.90
60717;DHT22;46566;52.700;6.192;2023-12-04T12:01:11;2.60;99.90
60717;DHT22;46566;52.700;6.192;2023-12-04T12:03:37;2.70;99.90
60717;DHT22;46566;52.700;6.192;2023-12-04T12:06:04;2.70;99.90
60717;DHT22;46566;52.700;6.192;2023-12-04T12:08:30;2.70;99.90
60717;DHT22;46566;52.700;6.192;2023-12-04T12:10:56;2.70;99.90
60717;DHT22;46566;52.700;6.192;2023-12-04T12:13:47;2.60;99.90
60717;DHT22;46566;52.700;6.192;2023-12-04T12:16:13;2.60;99.90
60717;DHT22;46566;52.700;6.192;2023-12-04T12:18:40;2.60;99.90
60717;DHT22;46566;52.700;6.192;2023-12-04T12:21:07;2.60;99.90
60717;DHT22;46566;52.700;6.192;2023-12-04T12:23:54;2.60;99.90
60717;DHT22;46566;52.700;6.192;2023-12-04T12:26:20;2.60;99.90
60717;DHT22;46566;52.700;6.192;2023-12-04T12:28:45;2.60;99.90
60717;DHT22;46566;52.700;6.192;2023-12-04T12:31:12;2.60;99.90
60717;DHT22;46566;52.700;6.192;2023-12-04T12:34:03;2.60;99.90
60717;DHT22;46566;52.700;6.192;2023-12-04T12:36:29;2.60;99.90
60717;DHT22;46566;52.700;6.192;2023-12-04T12:39:00;2.60;99.90
60717;DHT22;46566;52.700;6.192;2023-12-04T12:41:48;2.60;99.90
60717;DHT22;46566;52.700;6.192;2023-12-04T12:44:15;2.60;99.90
60717;DHT22;46566;52.700;6.192;2023-12-04T12:46:41;2.60;99.90
60717;DHT22;46566;52.700;6.192;2023-12-04T12:49:08;2.60;99.90
60717;DHT22;46566;52.700;6.192;2023-12-04T12:52:02;2.60;99.90
60717;DHT22;46566;52.700;6.192;2023-12-04T12:54:28;2.60;99.90
60717;DHT22;46566;52.700;6.192;2023-12-04T12:57:01;2.60;99.90
60717;DHT22;46566;52.700;6.192;2023-12-04T12:59:53;2.60;99.90
60717;DHT22;46566;52.700;6.192;2023-12-04T13:02:20;2.60;99.90
60717;DHT22;46566;52.700;6.192;2023-12-04T13:04:46;2.60;99.90
60717;DHT22;46566;52.700;6.192;2023-12-04T13:07:12;2.60;99.90
60717;DHT22;46566;52.700;6.192;2023-12-04T13:10:03;2.60;99.90
60717;DHT22;46566;52.700;6.192;2023-12-04T13:12:31;2.70;99.90
60717;DHT22;46566;52.700;6.192;2023-12-04T13:14:57;2.70;99.90
60717;DHT22;46566;52.700;6.192;2023-12-04T13:17:23;2.70;99.90
60717;DHT22;46566;52.700;6.192;2023-12-04T13:20:14;2.70;99.90
60717;DHT22;46566;52.700;6.192;2023-12-04T13:22:41;2.70;99.90
60717;DHT22;46566;52.700;6.192;2023-12-04T13:25:07;2.70;99.90
60717;DHT22;46566;52.700;6.192;2023-12-04T13:28:01;2.70;99.90
60717;DHT22;46566;52.700;6.192;2023-12-04T13:30:26;2.70;99.90
60717;DHT22;46566;52.700;6.192;2023-12-04T13:32:52;2.70;99.90
60717;DHT22;46566;52.700;6.192;2023-12-04T13:35:18;2.70;99.90
60717;DHT22;46566;52.700;6.192;2023-12-04T13:38:02;2.70;99.90
60717;DHT22;46566;52.700;6.192;2023-12-04T13:40:28;2.70;99.90
60717;DHT22;46566;52.700;6.192;2023-12-04T13:42:57;2.70;99.90
60717;DHT22;46566;52.700;6.192;2023-12-04T13:46:08;2.70;99.90
60717;DHT22;46566;52.700;6.192;2023-12-04T13:48:35;2.70;99.90
60717;DHT22;46566;52.700;6.192;2023-12-04T13:51:01;2.70;99.90
60717;DHT22;46566;52.700;6.192;2023-12-04T13:53:27;2.70;99.90
60717;DHT22;46566;52.700;6.192;2023-12-04T13:56:12;2.70;99.90
60717;DHT22;46566;52.700;6.192;2023-12-04T13:58:38;2.70;99.90
60717;DHT22;46566;52.700;6.192;2023-12-04T14:01:08;2.60;99.90
60717;DHT22;46566;52.700;6.192;2023-12-04T14:04:19;2.60;99.90
60717;DHT22;46566;52.700;6.192;2023-12-04T14:06:45;2.60;99.90
60717;DHT22;46566;52.700;6.192;2023-12-04T14:09:11;2.60;99.90
60717;DHT22;46566;52.700;6.192;2023-12-04T14:12:05;2.60;99.90
60717;DHT22;46566;52.700;6.192;2023-12-04T14:14:30;2.60;99.90
60717;DHT22;46566;52.700;6.192;2023-12-04T14:16:59;2.60;99.90
60717;DHT22;46566;52.700;6.192;2023-12-04T14:19:50;2.60;99.90
60717;DHT22;46566;52.700;6.192;2023-12-04T14:22:16;2.60;99.90
60717;DHT22;46566;52.700;6.192;2023-12-04T14:24:41;2.60;99.90
60717;DHT22;46566;52.700;6.192;2023-12-04T14:27:09;2.60;99.90
60717;DHT22;46566;52.700;6.192;2023-12-04T14:30:00;2.60;99.90
60717;DHT22;46566;52.700;6.192;2023-12-04T14:32:27;2.60;99.90
60717;DHT22;46566;52.700;6.192;2023-12-04T14:34:53;2.60;99.90
60717;DHT22;46566;52.700;6.192;2023-12-04T14:37:20;2.60;99.90
60717;DHT22;46566;52.700;6.192;2023-12-04T14:40:14;2.70;99.90
60717;DHT22;46566;52.700;6.192;2023-12-04T14:42:43;2.70;99.90
60717;DHT22;46566;52.700;6.192;2023-12-04T14:45:10;2.70;99.90
60717;DHT22;46566;52.700;6.192;2023-12-04T14:47:54;2.70;99.90
60717;DHT22;46566;52.700;6.192;2023-12-04T14:50:22;2.70;99.90
60717;DHT22;46566;52.700;6.192;2023-12-04T14:52:49;2.70;99.90
60717;DHT22;46566;52.700;6.192;2023-12-04T14:55:17;2.60;99.90
60717;DHT22;46566;52.700;6.192;2023-12-04T14:58:01;2.60;99.90
60717;DHT22;46566;52.700;6.192;2023-12-04T15:00:27;2.60;99.90
60717;DHT22;46566;52.700;6.192;2023-12-04T15:03:13;2.60;99.90
60717;DHT22;46566;52.700;6.192;2023-12-04T15:06:03;2.50;99.90
60717;DHT22;46566;52.700;6.192;2023-12-04T15:08:38;2.50;99.90
60717;DHT22;46566;52.700;6.192;2023-12-04T15:11:41;2.50;99.90
60717;DHT22;46566;52.700;6.192;2023-12-04T15:14:08;2.50;99.90
60717;DHT22;46566;52.700;6.192;2023-12-04T15:16:34;2.40;99.90
60717;DHT22;46566;52.700;6.192;2023-12-04T15:19:24;2.40;99.90
60717;DHT22;46566;52.700;6.192;2023-12-04T15:22:01;2.40;99.90
60717;DHT22;46566;52.700;6.192;2023-12-04T15:24:27;2.40;99.90
60717;DHT22;46566;52.700;6.192;2023-12-04T15:26:53;2.40;99.90
60717;DHT22;46566;52.700;6.192;2023-12-04T15:29:34;2.40;99.90
60717;DHT22;46566;52.700;6.192;2023-12-04T15:32:00;2.40;99.90
60717;DHT22;46566;52.700;6.192;2023-12-04T15:34:26;2.40;99.90
60717;DHT22;46566;52.700;6.192;2023-12-04T15:36:52;2.40;99.90
60717;DHT22;46566;52.700;6.192;2023-12-04T15:39:18;2.40;99.90
60717;DHT22;46566;52.700;6.192;2023-12-04T15:41:45;2.40;99.90
60717;DHT22;46566;52.700;6.192;2023-12-04T15:44:10;2.40;99.90
60717;DHT22;46566;52.700;6.192;2023-12-04T15:46:37;2.40;99.90
60717;DHT22;46566;52.700;6.192;2023-12-04T15:49:02;2.40;99.90
60717;DHT22;46566;52.700;6.192;2023-12-04T15:51:29;2.30;99.90
60717;DHT22;46566;52.700;6.192;2023-12-04T15:53:55;2.30;99.90
60717;DHT22;46566;52.700;6.192;2023-12-04T15:56:20;2.30;99.90
60717;DHT22;46566;52.700;6.192;2023-12-04T15:58:47;2.30;99.90
60717;DHT22;46566;52.700;6.192;2023-12-04T16:01:13;2.30;99.90